createdAt,value
2022-11-23T00:00:59.747Z,54.50
2022-11-23T00:02:02.594Z,54.16
2022-11-23T00:03:00.152Z,54.22
2022-11-23T00:03:59.726Z,54.24
2022-11-23T00:04:59.714Z,56.57
2022-11-23T00:05:59.841Z,56.13
2022-11-23T00:06:59.712Z,53.09
2022-11-23T00:07:59.750Z,53.54
2022-11-23T00:08:59.703Z,52.94
2022-11-23T00:10:00.417Z,54.79
2022-11-23T00:10:59.673Z,54.09
2022-11-23T00:11:59.683Z,56.47
2022-11-23T00:12:59.665Z,53.73
2022-11-23T00:13:59.668Z,52.83
2022-11-23T00:14:59.653Z,53.85
2022-11-23T00:16:00.904Z,53.31
2022-11-23T00:16:59.639Z,53.93
2022-11-23T00:17:59.645Z,54.30
2022-11-23T00:18:59.631Z,53.41
2022-11-23T00:19:59.665Z,52.76
2022-11-23T00:20:59.614Z,58.87
2022-11-23T00:22:00.106Z,53.26
2022-11-23T00:22:59.609Z,52.18
2022-11-23T00:24:00.473Z,53.55
2022-11-23T00:24:59.603Z,54.75
2022-11-23T00:25:59.591Z,52.43
2022-11-23T00:27:00.259Z,52.91
2022-11-23T00:27:59.571Z,51.98
2022-11-23T00:28:59.566Z,49.99
2022-11-23T00:29:59.566Z,49.15
2022-11-23T00:30:59.571Z,51.32
2022-11-23T00:31:59.547Z,50.68
2022-11-23T00:32:59.541Z,52.05
2022-11-23T00:33:59.532Z,50.33
2022-11-23T00:34:59.548Z,50.87
2022-11-23T00:36:01.369Z,50.04
2022-11-23T00:36:59.502Z,50.74
2022-11-23T00:37:59.542Z,54.16
2022-11-23T00:38:59.497Z,51.56
2022-11-23T00:39:59.502Z,52.82
2022-11-23T00:40:59.484Z,51.73
2022-11-23T00:41:59.783Z,52.05
2022-11-23T00:43:00.869Z,51.40
2022-11-23T00:43:59.505Z,51.09
2022-11-23T00:44:59.469Z,50.70
2022-11-23T00:45:59.531Z,52.35
2022-11-23T00:46:59.444Z,55.43
2022-11-23T00:48:00.794Z,60.07
2022-11-23T00:48:59.428Z,51.67
2022-11-23T00:49:59.436Z,50.87
2022-11-23T00:50:59.410Z,52.36
2022-11-23T00:51:59.436Z,60.29
2022-11-23T00:52:59.875Z,54.01
2022-11-23T00:53:59.426Z,51.71
2022-11-23T00:54:59.473Z,51.72
2022-11-23T00:55:59.385Z,52.27
2022-11-23T00:56:59.403Z,51.32
2022-11-23T00:57:59.386Z,49.83
2022-11-23T00:58:59.374Z,49.29
2022-11-23T00:59:59.374Z,49.85
2022-11-23T01:00:59.353Z,49.91
2022-11-23T01:01:59.407Z,50.96
2022-11-23T01:02:59.360Z,50.65
2022-11-23T01:03:59.668Z,50.21
2022-11-23T01:04:59.321Z,51.23
2022-11-23T01:05:59.330Z,51.51
2022-11-23T01:06:59.307Z,53.22
2022-11-23T01:07:59.346Z,52.62
2022-11-23T01:09:20.324Z,50.58
2022-11-23T01:09:59.300Z,52.21
2022-11-23T01:10:59.288Z,51.27
2022-11-23T01:11:59.286Z,51.14
2022-11-23T01:12:59.278Z,52.59
2022-11-23T01:13:59.279Z,52.79
2022-11-23T01:15:00.067Z,55.20
2022-11-23T01:15:59.257Z,51.03
2022-11-23T01:16:59.266Z,50.73
2022-11-23T01:17:59.254Z,51.44
2022-11-23T01:18:59.231Z,51.18
2022-11-23T01:19:59.506Z,50.41
2022-11-23T01:20:59.983Z,51.53
2022-11-23T01:21:59.220Z,51.71
2022-11-23T01:22:59.215Z,51.09
2022-11-23T01:23:59.213Z,57.36
2022-11-23T01:24:59.220Z,52.74
2022-11-23T01:25:59.878Z,51.11
2022-11-23T01:26:59.291Z,52.29
2022-11-23T01:27:59.204Z,52.93
2022-11-23T01:28:59.199Z,58.62
2022-11-23T01:30:00.626Z,54.40
2022-11-23T01:30:59.177Z,52.71
2022-11-23T01:31:59.164Z,53.49
2022-11-23T01:32:59.149Z,51.89
2022-11-23T01:33:59.155Z,53.51
2022-11-23T01:34:59.226Z,52.42
2022-11-23T01:35:59.255Z,51.45
2022-11-23T01:36:59.157Z,52.57
2022-11-23T01:37:59.132Z,51.39
2022-11-23T01:39:00.744Z,51.33
2022-11-23T01:39:59.117Z,51.24
2022-11-23T01:40:59.167Z,52.05
2022-11-23T01:41:59.105Z,53.53
2022-11-23T01:42:59.091Z,51.67
2022-11-23T01:43:59.083Z,51.64
2022-11-23T01:44:59.066Z,51.70
2022-11-23T01:45:59.088Z,52.64
2022-11-23T01:46:59.065Z,50.02
2022-11-23T01:48:00.207Z,50.22
2022-11-23T01:48:59.050Z,51.67
2022-11-23T01:49:59.059Z,55.04
2022-11-23T01:50:59.038Z,57.76
2022-11-23T01:51:59.041Z,50.53
2022-11-23T01:52:59.585Z,49.88
2022-11-23T01:53:59.017Z,50.44
2022-11-23T01:55:02.568Z,51.29
2022-11-23T01:56:00.002Z,50.40
2022-11-23T01:56:59.011Z,52.33
2022-11-23T01:57:59.004Z,51.40
2022-11-23T01:58:58.979Z,48.30
2022-11-23T01:59:59.352Z,49.37
2022-11-23T02:00:59.033Z,49.72
2022-11-23T02:01:59.054Z,50.30
2022-11-23T02:02:58.970Z,50.97
2022-11-23T02:03:58.957Z,49.05
2022-11-23T02:04:58.948Z,50.10
2022-11-23T02:05:58.953Z,48.37
2022-11-23T02:06:58.928Z,48.45
2022-11-23T02:07:58.938Z,48.66
2022-11-23T02:09:00.083Z,50.81
2022-11-23T02:09:58.920Z,50.45
2022-11-23T02:10:58.937Z,49.97
2022-11-23T02:11:58.923Z,52.88
2022-11-23T02:12:58.919Z,57.13
2022-11-23T02:13:58.908Z,56.08
2022-11-23T02:14:58.879Z,50.94
2022-11-23T02:15:58.960Z,50.12
2022-11-23T02:16:58.916Z,49.87
2022-11-23T02:18:00.192Z,50.57
2022-11-23T02:18:58.853Z,50.52
2022-11-23T02:19:58.884Z,51.09
2022-11-23T02:20:58.848Z,55.46
2022-11-23T02:21:58.867Z,52.37
2022-11-23T02:22:59.203Z,49.62
2022-11-23T02:23:58.836Z,51.30
2022-11-23T02:24:58.813Z,50.50
2022-11-23T02:25:58.827Z,50.59
2022-11-23T02:26:58.802Z,51.64
2022-11-23T02:27:59.377Z,51.99
2022-11-23T02:28:58.818Z,52.84
2022-11-23T02:29:58.790Z,51.73
2022-11-23T02:30:58.786Z,51.50
2022-11-23T02:31:58.780Z,54.54
2022-11-23T02:32:58.763Z,57.77
2022-11-23T02:33:58.773Z,51.69
2022-11-23T02:34:58.761Z,53.13
2022-11-23T02:35:58.747Z,56.68
2022-11-23T02:36:58.754Z,53.21
2022-11-23T02:37:58.753Z,50.10
2022-11-23T02:38:58.721Z,49.71
2022-11-23T02:39:58.747Z,50.77
2022-11-23T02:40:58.717Z,51.40
2022-11-23T02:41:58.886Z,49.69
2022-11-23T02:42:58.708Z,50.96
2022-11-23T02:43:58.696Z,52.89
2022-11-23T02:44:58.706Z,53.02
2022-11-23T02:45:58.697Z,57.37
2022-11-23T02:47:19.709Z,49.76
2022-11-23T02:47:59.776Z,48.75
2022-11-23T02:48:58.677Z,49.56
2022-11-23T02:49:58.665Z,48.78
2022-11-23T02:50:58.649Z,48.84
2022-11-23T02:51:58.665Z,50.36
2022-11-23T02:52:58.671Z,50.94
2022-11-23T02:53:58.643Z,49.85
2022-11-23T02:54:58.629Z,49.28
2022-11-23T02:55:59.392Z,49.19
2022-11-23T02:56:58.623Z,49.35
2022-11-23T02:57:59.285Z,49.87
2022-11-23T02:58:58.607Z,49.68
2022-11-23T02:59:58.599Z,50.78
2022-11-23T03:00:58.683Z,50.47
2022-11-23T03:01:58.844Z,49.80
2022-11-23T03:02:59.150Z,50.71
2022-11-23T03:03:58.557Z,51.17
2022-11-23T03:04:58.575Z,51.78
2022-11-23T03:05:58.564Z,49.73
2022-11-23T03:06:58.539Z,51.60
2022-11-23T03:07:58.575Z,51.28
2022-11-23T03:08:58.543Z,49.38
2022-11-23T03:09:58.531Z,49.91
2022-11-23T03:10:58.537Z,51.78
2022-11-23T03:11:58.533Z,51.41
2022-11-23T03:12:58.562Z,50.13
2022-11-23T03:13:58.553Z,50.61
2022-11-23T03:14:58.520Z,57.91
2022-11-23T03:15:58.791Z,54.35
2022-11-23T03:16:58.513Z,52.47
2022-11-23T03:17:58.485Z,52.72
2022-11-23T03:18:58.475Z,56.37
2022-11-23T03:19:58.476Z,52.58
2022-11-23T03:20:59.386Z,53.14
2022-11-23T03:21:58.494Z,53.08
2022-11-23T03:22:58.453Z,50.88
2022-11-23T03:23:58.507Z,51.85
2022-11-23T03:24:58.424Z,52.03
2022-11-23T03:25:58.439Z,53.10
2022-11-23T03:26:58.424Z,58.64
2022-11-23T03:27:58.427Z,57.03
2022-11-23T03:28:58.408Z,52.54
2022-11-23T03:29:58.410Z,51.52
2022-11-23T03:30:58.395Z,54.89
2022-11-23T03:31:58.434Z,55.18
2022-11-23T03:32:58.397Z,53.42
2022-11-23T03:33:58.383Z,56.00
2022-11-23T03:34:58.362Z,60.42
2022-11-23T03:35:58.382Z,52.91
2022-11-23T03:37:00.427Z,52.49
2022-11-23T03:37:58.366Z,53.76
2022-11-23T03:38:58.377Z,52.94
2022-11-23T03:39:58.342Z,52.65
2022-11-23T03:40:58.345Z,51.99
2022-11-23T03:41:58.343Z,52.61
2022-11-23T03:42:58.901Z,53.30
2022-11-23T03:44:00.004Z,52.75
2022-11-23T03:44:58.312Z,53.42
2022-11-23T03:45:58.324Z,54.23
2022-11-23T03:46:58.294Z,52.03
2022-11-23T03:47:59.755Z,53.55
2022-11-23T03:49:00.490Z,53.06
2022-11-23T03:49:58.289Z,52.82
2022-11-23T03:50:58.286Z,52.75
2022-11-23T03:51:58.284Z,52.39
2022-11-23T03:52:58.275Z,53.86
2022-11-23T03:54:19.368Z,53.23
2022-11-23T03:55:00.261Z,53.61
2022-11-23T03:55:58.254Z,55.35
2022-11-23T03:56:58.488Z,54.23
2022-11-23T03:57:58.274Z,52.54
2022-11-23T03:58:58.237Z,52.66
2022-11-23T03:59:58.258Z,55.08
2022-11-23T04:00:58.431Z,55.33
2022-11-23T04:01:58.790Z,54.27
2022-11-23T04:02:58.196Z,51.62
2022-11-23T04:03:58.202Z,53.05
2022-11-23T04:04:58.206Z,51.20
2022-11-23T04:05:58.185Z,51.47
2022-11-23T04:06:58.164Z,51.59
2022-11-23T04:07:58.609Z,52.34
2022-11-23T04:09:02.018Z,52.65
2022-11-23T04:09:58.156Z,54.79
2022-11-23T04:10:58.153Z,54.19
2022-11-23T04:11:58.146Z,54.05
2022-11-23T04:12:58.156Z,53.01
2022-11-23T04:14:00.672Z,54.59
2022-11-23T04:14:58.108Z,54.98
2022-11-23T04:15:58.115Z,55.44
2022-11-23T04:16:58.127Z,53.86
2022-11-23T04:17:58.107Z,53.40
2022-11-23T04:18:58.113Z,53.67
2022-11-23T04:19:58.096Z,54.91
2022-11-23T04:20:58.530Z,53.15
2022-11-23T04:21:58.085Z,54.81
2022-11-23T04:22:58.169Z,55.51
2022-11-23T04:23:58.057Z,55.56
2022-11-23T04:24:58.055Z,55.65
2022-11-23T04:25:58.050Z,52.56
2022-11-23T04:26:58.584Z,52.25
2022-11-23T04:27:59.096Z,54.17
2022-11-23T04:28:58.083Z,56.74
2022-11-23T04:29:58.112Z,59.55
2022-11-23T04:30:58.000Z,55.17
2022-11-23T04:31:58.013Z,55.44
2022-11-23T04:32:58.614Z,55.59
2022-11-23T04:33:58.002Z,53.72
2022-11-23T04:34:57.976Z,55.58
2022-11-23T04:36:00.211Z,54.17
2022-11-23T04:36:57.996Z,55.44
2022-11-23T04:37:57.966Z,53.95
2022-11-23T04:38:58.388Z,53.88
2022-11-23T04:39:57.962Z,55.45
2022-11-23T04:40:58.486Z,55.19
2022-11-23T04:41:57.941Z,54.44
2022-11-23T04:43:01.642Z,54.93
2022-11-23T04:43:57.954Z,59.90
2022-11-23T04:44:57.918Z,58.00
2022-11-23T04:45:57.934Z,54.95
2022-11-23T04:46:57.908Z,54.53
2022-11-23T04:47:57.946Z,53.71
2022-11-23T04:48:57.917Z,53.99
2022-11-23T04:49:57.973Z,53.58
2022-11-23T04:50:57.886Z,54.19
2022-11-23T04:51:57.923Z,53.66
2022-11-23T04:52:57.910Z,53.53
2022-11-23T04:53:57.889Z,54.42
2022-11-23T04:54:57.850Z,54.25
2022-11-23T04:55:57.853Z,54.54
2022-11-23T04:56:57.862Z,54.16
2022-11-23T04:57:57.846Z,55.35
2022-11-23T04:58:57.864Z,53.03
2022-11-23T04:59:57.831Z,53.11
2022-11-23T05:00:57.918Z,55.41
2022-11-23T05:01:57.818Z,54.50
2022-11-23T05:02:57.832Z,53.00
2022-11-23T05:03:58.905Z,55.07
2022-11-23T05:04:57.865Z,54.74
2022-11-23T05:05:57.801Z,55.55
2022-11-23T05:06:57.781Z,53.84
2022-11-23T05:07:57.808Z,54.76
2022-11-23T05:08:57.805Z,53.80
2022-11-23T05:09:57.770Z,53.17
2022-11-23T05:10:57.756Z,53.94
2022-11-23T05:11:57.754Z,54.26
2022-11-23T05:12:58.701Z,53.14
2022-11-23T05:13:59.158Z,53.71
2022-11-23T05:14:57.730Z,52.62
2022-11-23T05:15:57.723Z,52.37
2022-11-23T05:16:57.713Z,54.47
2022-11-23T05:17:59.183Z,54.27
2022-11-23T05:18:57.702Z,54.07
2022-11-23T05:20:00.112Z,57.12
2022-11-23T05:20:58.804Z,53.64
2022-11-23T05:21:57.690Z,54.92
2022-11-23T05:22:57.666Z,52.61
2022-11-23T05:23:57.708Z,52.11
2022-11-23T05:24:57.684Z,54.30
2022-11-23T05:25:57.655Z,51.98
2022-11-23T05:26:57.659Z,52.84
2022-11-23T05:27:59.170Z,54.21
2022-11-23T05:28:58.626Z,54.60
2022-11-23T05:29:57.627Z,53.92
2022-11-23T05:30:57.627Z,53.82
2022-11-23T05:31:57.645Z,51.34
2022-11-23T05:32:57.613Z,51.33
2022-11-23T05:33:57.762Z,52.77
2022-11-23T05:34:57.587Z,53.20
2022-11-23T05:35:57.589Z,52.28
2022-11-23T05:36:57.584Z,52.38
2022-11-23T05:37:57.577Z,52.93
2022-11-23T05:38:57.567Z,52.44
2022-11-23T05:39:57.573Z,52.61
2022-11-23T05:40:57.576Z,50.68
2022-11-23T05:41:57.556Z,51.55
2022-11-23T05:42:57.537Z,52.68
2022-11-23T05:43:59.026Z,52.63
2022-11-23T05:44:57.525Z,53.76
2022-11-23T05:45:57.534Z,52.84
2022-11-23T05:46:57.507Z,52.50
2022-11-23T05:47:57.509Z,54.94
2022-11-23T05:48:57.514Z,54.56
2022-11-23T05:49:58.629Z,53.38
2022-11-23T05:51:03.600Z,53.27
2022-11-23T05:51:58.514Z,53.00
2022-11-23T05:52:57.528Z,54.83
2022-11-23T05:53:57.477Z,56.94
2022-11-23T05:54:57.658Z,52.49
2022-11-23T05:55:57.449Z,52.83
2022-11-23T05:56:57.471Z,53.21
2022-11-23T05:57:57.445Z,58.24
2022-11-23T05:58:57.442Z,54.18
2022-11-23T05:59:58.470Z,52.39
2022-11-23T06:00:57.560Z,51.53
2022-11-23T06:01:57.428Z,51.82
2022-11-23T06:02:57.416Z,53.63
2022-11-23T06:03:57.455Z,52.74
2022-11-23T06:04:57.427Z,52.07
2022-11-23T06:05:57.382Z,53.06
2022-11-23T06:06:57.387Z,52.79
2022-11-23T06:07:57.394Z,53.72
2022-11-23T06:08:57.373Z,53.97
2022-11-23T06:09:57.368Z,52.05
2022-11-23T06:10:57.376Z,52.27
2022-11-23T06:11:57.390Z,51.47
2022-11-23T06:12:57.416Z,53.22
2022-11-23T06:13:57.327Z,54.17
2022-11-23T06:14:57.331Z,53.93
2022-11-23T06:15:57.332Z,60.75
2022-11-23T06:16:57.972Z,54.90
2022-11-23T06:17:57.314Z,53.39
2022-11-23T06:18:57.312Z,51.94
2022-11-23T06:19:57.306Z,52.00
2022-11-23T06:20:57.341Z,51.72
2022-11-23T06:21:57.277Z,53.85
2022-11-23T06:22:57.278Z,58.31
2022-11-23T06:23:57.332Z,53.57
2022-11-23T06:24:57.270Z,54.42
2022-11-23T06:25:57.262Z,54.11
2022-11-23T06:26:57.268Z,54.72
2022-11-23T06:27:57.241Z,55.16
2022-11-23T06:28:57.275Z,54.86
2022-11-23T06:29:57.370Z,54.86
2022-11-23T06:30:57.227Z,55.45
2022-11-23T06:31:57.222Z,55.16
2022-11-23T06:32:57.239Z,56.96
2022-11-23T06:33:57.246Z,60.58
2022-11-23T06:35:00.731Z,69.49
2022-11-23T06:35:57.200Z,54.55
2022-11-23T06:36:57.243Z,54.23
2022-11-23T06:37:57.196Z,54.45
2022-11-23T06:38:57.189Z,54.53
2022-11-23T06:39:57.713Z,57.77
2022-11-23T06:40:57.192Z,71.09
2022-11-23T06:42:16.520Z,69.76
2022-11-23T06:42:58.154Z,58.34
2022-11-23T06:43:57.155Z,62.12
2022-11-23T06:44:57.165Z,51.93
2022-11-23T06:45:57.153Z,53.91
2022-11-23T06:46:57.143Z,53.17
2022-11-23T06:47:57.184Z,54.15
2022-11-23T06:48:57.123Z,62.00
2022-11-23T06:49:57.110Z,55.47
2022-11-23T06:50:57.116Z,53.40
2022-11-23T06:51:57.094Z,54.23
2022-11-23T06:52:57.108Z,54.71
2022-11-23T06:53:57.116Z,54.76
2022-11-23T06:54:57.077Z,65.52
2022-11-23T06:55:58.230Z,57.57
2022-11-23T06:56:57.068Z,55.13
2022-11-23T06:57:57.058Z,53.40
2022-11-23T06:58:57.060Z,60.72
2022-11-23T06:59:57.039Z,62.20
2022-11-23T07:00:57.239Z,54.51
2022-11-23T07:01:57.024Z,53.05
2022-11-23T07:02:57.031Z,54.97
2022-11-23T07:03:57.073Z,53.63
2022-11-23T07:04:57.470Z,54.34
2022-11-23T07:05:57.812Z,55.97
2022-11-23T07:06:57.001Z,59.85
2022-11-23T07:07:56.994Z,55.56
2022-11-23T07:08:57.112Z,55.33
2022-11-23T07:09:57.788Z,54.40
2022-11-23T07:10:57.014Z,54.25
2022-11-23T07:11:56.967Z,54.38
2022-11-23T07:12:56.973Z,54.88
2022-11-23T07:13:56.951Z,55.29
2022-11-23T07:14:56.959Z,60.49
2022-11-23T07:15:56.942Z,55.18
2022-11-23T07:16:56.965Z,54.72
2022-11-23T07:17:56.929Z,55.27
2022-11-23T07:18:57.212Z,55.09
2022-11-23T07:19:56.927Z,53.79
2022-11-23T07:20:56.915Z,54.74
2022-11-23T07:21:56.913Z,55.15
2022-11-23T07:22:57.312Z,54.66
2022-11-23T07:23:57.295Z,53.95
2022-11-23T07:24:56.879Z,53.81
2022-11-23T07:25:56.921Z,58.36
2022-11-23T07:26:56.884Z,60.79
2022-11-23T07:27:56.871Z,57.33
2022-11-23T07:28:56.865Z,55.22
2022-11-23T07:29:56.858Z,54.88
2022-11-23T07:30:56.853Z,53.29
2022-11-23T07:31:56.852Z,54.35
2022-11-23T07:32:56.850Z,54.01
2022-11-23T07:33:57.559Z,55.07
2022-11-23T07:34:56.821Z,53.02
2022-11-23T07:35:58.062Z,53.77
2022-11-23T07:37:01.851Z,53.33
2022-11-23T07:37:56.815Z,53.50
2022-11-23T07:38:56.791Z,54.75
2022-11-23T07:39:58.436Z,53.95
2022-11-23T07:40:56.787Z,53.99
2022-11-23T07:42:24.568Z,55.61
2022-11-23T07:42:57.785Z,54.52
2022-11-23T07:43:56.772Z,54.50
2022-11-23T07:44:56.751Z,58.11
2022-11-23T07:45:56.761Z,54.97
2022-11-23T07:46:57.445Z,53.70
2022-11-23T07:47:56.769Z,54.23
2022-11-23T07:48:56.753Z,53.64
2022-11-23T07:49:56.723Z,53.87
2022-11-23T07:50:56.738Z,54.91
2022-11-23T07:51:56.736Z,56.73
2022-11-23T07:52:56.709Z,57.40
2022-11-23T07:53:56.698Z,54.17
2022-11-23T07:54:56.689Z,53.51
2022-11-23T07:55:56.716Z,53.98
2022-11-23T07:56:56.678Z,53.45
2022-11-23T07:57:56.676Z,53.43
2022-11-23T07:58:57.412Z,54.18
2022-11-23T07:59:56.658Z,52.99
2022-11-23T08:00:56.676Z,52.62
2022-11-23T08:01:58.536Z,53.26
2022-11-23T08:03:27.414Z,55.68
2022-11-23T08:03:57.664Z,54.59
2022-11-23T08:04:56.642Z,60.41
2022-11-23T08:05:56.636Z,57.04
2022-11-23T08:06:56.616Z,56.77
2022-11-23T08:07:57.070Z,57.44
2022-11-23T08:08:56.595Z,54.95
2022-11-23T08:09:56.605Z,54.43
2022-11-23T08:10:56.602Z,54.66
2022-11-23T08:11:56.578Z,55.08
2022-11-23T08:12:56.576Z,54.97
2022-11-23T08:13:56.700Z,55.79
2022-11-23T08:14:56.565Z,56.04
2022-11-23T08:15:56.565Z,55.43
2022-11-23T08:16:56.540Z,56.67
2022-11-23T08:17:56.554Z,56.90
2022-11-23T08:18:56.983Z,57.18
2022-11-23T08:19:56.539Z,56.42
2022-11-23T08:20:56.541Z,56.77
2022-11-23T08:21:56.514Z,54.29
2022-11-23T08:22:56.787Z,54.40
2022-11-23T08:23:57.970Z,57.73
2022-11-23T08:24:56.484Z,59.01
2022-11-23T08:25:56.497Z,57.23
2022-11-23T08:26:56.482Z,57.32
2022-11-23T08:27:56.468Z,56.74
2022-11-23T08:28:57.583Z,56.32
2022-11-23T08:29:56.459Z,54.77
2022-11-23T08:30:56.443Z,57.47
2022-11-23T08:31:56.457Z,59.40
2022-11-23T08:32:56.422Z,59.08
2022-11-23T08:34:00.295Z,58.49
2022-11-23T08:34:57.439Z,55.18
2022-11-23T08:35:56.415Z,55.62
2022-11-23T08:36:56.444Z,56.09
2022-11-23T08:37:56.403Z,59.32
2022-11-23T08:38:56.391Z,60.40
2022-11-23T08:39:56.420Z,61.88
2022-11-23T08:40:56.388Z,61.99
2022-11-23T08:41:56.383Z,61.37
2022-11-23T08:42:56.417Z,60.59
2022-11-23T08:43:56.378Z,64.63
2022-11-23T08:44:56.349Z,62.05
2022-11-23T08:46:03.292Z,60.96
2022-11-23T08:46:57.457Z,61.13
2022-11-23T08:47:56.343Z,60.61
2022-11-23T08:48:56.363Z,60.86
2022-11-23T08:49:56.341Z,60.32
2022-11-23T08:50:56.317Z,60.18
2022-11-23T08:51:56.351Z,60.59
2022-11-23T08:52:56.328Z,60.10
2022-11-23T08:53:56.333Z,59.91
2022-11-23T08:54:56.315Z,59.51
2022-11-23T08:55:56.281Z,60.50
2022-11-23T08:56:56.307Z,57.65
2022-11-23T08:57:57.134Z,60.53
2022-11-23T08:58:56.281Z,60.48
2022-11-23T09:00:17.270Z,62.08
2022-11-23T09:00:56.260Z,61.69
2022-11-23T09:01:56.273Z,62.95
2022-11-23T09:02:57.105Z,64.65
2022-11-23T09:03:56.230Z,63.23
2022-11-23T09:04:56.250Z,62.93
2022-11-23T09:05:56.230Z,63.38
2022-11-23T09:06:56.393Z,60.05
2022-11-23T09:07:56.316Z,61.57
2022-11-23T09:08:56.228Z,62.25
2022-11-23T09:09:56.194Z,60.03
2022-11-23T09:10:56.206Z,60.67
2022-11-23T09:11:56.192Z,59.73
2022-11-23T09:12:56.625Z,60.70
2022-11-23T09:13:56.543Z,62.75
2022-11-23T09:14:56.186Z,63.21
2022-11-23T09:15:56.196Z,64.15
2022-11-23T09:16:56.163Z,64.84
2022-11-23T09:17:56.195Z,65.04
2022-11-23T09:18:56.141Z,66.17
2022-11-23T09:19:56.132Z,65.49
2022-11-23T09:20:56.126Z,66.11
2022-11-23T09:21:56.106Z,65.25
2022-11-23T09:22:56.121Z,65.77
2022-11-23T09:23:56.105Z,66.55
2022-11-23T09:24:56.216Z,65.39
2022-11-23T09:25:56.091Z,65.56
2022-11-23T09:26:56.118Z,66.56
2022-11-23T09:27:56.077Z,65.15
2022-11-23T09:28:56.079Z,67.98
2022-11-23T09:29:56.061Z,63.04
2022-11-23T09:30:56.076Z,55.69
2022-11-23T09:31:56.029Z,63.74
2022-11-23T09:32:56.046Z,68.81
2022-11-23T09:33:56.032Z,65.94
2022-11-23T09:34:56.018Z,62.24
2022-11-23T09:35:56.021Z,61.00
2022-11-23T09:36:56.004Z,61.19
2022-11-23T09:37:55.993Z,59.98
2022-11-23T09:38:57.498Z,60.82
2022-11-23T09:39:55.976Z,59.25
2022-11-23T09:40:57.770Z,65.35
2022-11-23T09:41:55.980Z,69.86
2022-11-23T09:42:55.965Z,66.00
2022-11-23T09:43:55.948Z,64.16
2022-11-23T09:44:55.969Z,66.61
2022-11-23T09:45:55.950Z,67.44
2022-11-23T09:46:55.933Z,66.86
2022-11-23T09:47:55.937Z,68.88
2022-11-23T09:48:55.922Z,70.21
2022-11-23T09:49:56.275Z,67.75
2022-11-23T09:50:55.920Z,67.72
2022-11-23T09:51:55.894Z,66.89
2022-11-23T09:52:55.906Z,67.24
2022-11-23T09:53:55.893Z,59.59
2022-11-23T09:54:56.274Z,57.33
2022-11-23T09:55:55.876Z,59.74
2022-11-23T09:57:01.235Z,58.94
2022-11-23T09:57:56.848Z,65.79
2022-11-23T09:58:55.872Z,67.99
2022-11-23T09:59:55.846Z,73.79
2022-11-23T10:00:55.841Z,72.12
2022-11-23T10:01:55.870Z,72.85
2022-11-23T10:02:55.838Z,74.39
2022-11-23T10:03:55.810Z,73.85
2022-11-23T10:04:55.823Z,69.17
2022-11-23T10:05:55.828Z,71.61
2022-11-23T10:06:55.794Z,73.04
2022-11-23T10:07:55.793Z,70.40
2022-11-23T10:08:55.778Z,72.55
2022-11-23T10:09:55.770Z,70.87
2022-11-23T10:10:55.804Z,68.80
2022-11-23T10:11:55.749Z,71.47
2022-11-23T10:12:55.789Z,71.35
2022-11-23T10:13:55.745Z,72.07
2022-11-23T10:14:55.735Z,70.96
2022-11-23T10:15:55.730Z,71.26
2022-11-23T10:16:56.191Z,69.70
2022-11-23T10:17:55.719Z,71.74
2022-11-23T10:18:56.300Z,71.87
2022-11-23T10:19:55.703Z,68.46
2022-11-23T10:20:55.693Z,70.87
2022-11-23T10:21:55.684Z,69.93
2022-11-23T10:22:55.695Z,71.11
2022-11-23T10:23:55.678Z,70.80
2022-11-23T10:24:56.988Z,72.73
2022-11-23T10:25:55.661Z,72.20
2022-11-23T10:26:55.655Z,71.79
2022-11-23T10:27:55.651Z,71.27
2022-11-23T10:28:55.667Z,66.03
2022-11-23T10:29:55.626Z,56.94
2022-11-23T10:30:56.321Z,60.82
2022-11-23T10:31:57.495Z,65.96
2022-11-23T10:32:55.650Z,71.50
2022-11-23T10:33:55.650Z,70.71
2022-11-23T10:34:55.621Z,71.79
2022-11-23T10:35:57.238Z,73.00
2022-11-23T10:36:55.617Z,72.69
2022-11-23T10:37:55.581Z,72.64
2022-11-23T10:38:55.586Z,75.93
2022-11-23T10:39:55.565Z,73.94
2022-11-23T10:40:55.574Z,73.69
2022-11-23T10:41:55.557Z,73.90
2022-11-23T10:42:55.564Z,74.82
2022-11-23T10:43:55.541Z,72.21
2022-11-23T10:44:55.580Z,73.15
2022-11-23T10:45:59.728Z,71.06
2022-11-23T10:46:55.526Z,73.14
2022-11-23T10:47:55.518Z,76.82
2022-11-23T10:48:55.880Z,72.94
2022-11-23T10:49:55.485Z,71.95
2022-11-23T10:50:55.497Z,73.24
2022-11-23T10:51:55.465Z,72.55
2022-11-23T10:52:55.503Z,63.85
2022-11-23T10:53:58.490Z,63.44
2022-11-23T10:54:55.574Z,61.95
2022-11-23T10:55:55.447Z,63.65
2022-11-23T10:56:55.435Z,66.72
2022-11-23T10:57:55.420Z,71.62
2022-11-23T10:58:55.437Z,69.56
2022-11-23T10:59:55.466Z,69.18
2022-11-23T11:00:55.445Z,65.40
2022-11-23T11:01:55.443Z,65.18
2022-11-23T11:02:55.402Z,66.63
2022-11-23T11:03:55.567Z,70.07
2022-11-23T11:04:58.645Z,68.24
2022-11-23T11:06:11.636Z,67.86
2022-11-23T11:06:56.366Z,71.44
2022-11-23T11:07:55.364Z,68.78
2022-11-23T11:08:55.370Z,68.61
2022-11-23T11:09:55.338Z,69.83
2022-11-23T11:10:55.352Z,63.98
2022-11-23T11:11:55.322Z,61.68
2022-11-23T11:12:55.340Z,63.16
2022-11-23T11:13:56.396Z,64.97
2022-11-23T11:14:55.319Z,65.02
2022-11-23T11:15:55.357Z,68.55
2022-11-23T11:16:55.326Z,69.54
2022-11-23T11:17:55.287Z,68.03
2022-11-23T11:18:55.320Z,69.13
2022-11-23T11:19:55.324Z,67.53
2022-11-23T11:20:55.276Z,69.24
2022-11-23T11:21:55.257Z,71.18
2022-11-23T11:22:57.449Z,71.23
2022-11-23T11:23:55.889Z,71.27
2022-11-23T11:24:55.276Z,72.25
2022-11-23T11:25:55.242Z,72.32
2022-11-23T11:26:57.021Z,55.94
2022-11-23T11:27:55.239Z,55.94
2022-11-23T11:28:55.218Z,63.92
2022-11-23T11:29:55.201Z,68.89
2022-11-23T11:30:55.226Z,66.96
2022-11-23T11:31:55.221Z,67.37
2022-11-23T11:32:56.006Z,68.78
2022-11-23T11:33:55.187Z,67.62
2022-11-23T11:34:55.193Z,66.45
2022-11-23T11:35:55.173Z,61.48
2022-11-23T11:36:55.163Z,72.49
2022-11-23T11:37:55.170Z,77.43
2022-11-23T11:39:17.310Z,75.03
2022-11-23T11:39:56.434Z,72.47
2022-11-23T11:40:55.125Z,73.05
2022-11-23T11:41:55.136Z,75.70
2022-11-23T11:42:55.127Z,65.87
2022-11-23T11:43:55.113Z,76.83
2022-11-23T11:44:57.089Z,75.03
2022-11-23T11:46:56.101Z,71.62
2022-11-23T11:47:55.500Z,78.02
2022-11-23T11:48:55.114Z,73.85
2022-11-23T11:49:55.071Z,75.83
2022-11-23T11:50:55.729Z,72.09
2022-11-23T11:51:55.111Z,56.23
2022-11-23T11:52:55.044Z,58.93
2022-11-23T11:53:55.044Z,58.82
2022-11-23T11:54:55.056Z,58.76
2022-11-23T11:55:55.034Z,61.49
2022-11-23T11:56:55.290Z,62.73
2022-11-23T11:57:55.027Z,63.65
2022-11-23T11:58:55.038Z,61.35
2022-11-23T11:59:54.993Z,62.17
2022-11-23T12:00:55.007Z,63.26
2022-11-23T12:01:54.996Z,62.26
2022-11-23T12:02:55.073Z,61.57
2022-11-23T12:03:54.986Z,57.66
2022-11-23T12:04:55.008Z,58.89
2022-11-23T12:05:54.956Z,59.21
2022-11-23T12:06:54.957Z,63.87
2022-11-23T12:07:55.634Z,66.59
2022-11-23T12:08:55.398Z,70.18
2022-11-23T12:09:54.923Z,66.11
2022-11-23T12:10:54.941Z,68.10
2022-11-23T12:11:54.914Z,70.21
2022-11-23T12:12:54.917Z,75.14
2022-11-23T12:13:54.912Z,77.78
2022-11-23T12:14:55.443Z,75.82
2022-11-23T12:15:54.908Z,78.88
2022-11-23T12:17:16.875Z,81.01
2022-11-23T12:17:55.871Z,79.08
2022-11-23T12:18:54.885Z,79.86
2022-11-23T12:19:55.283Z,81.70
2022-11-23T12:20:54.880Z,82.66
2022-11-23T12:21:56.212Z,85.55
2022-11-23T12:22:54.857Z,70.37
2022-11-23T12:23:54.826Z,72.64
2022-11-23T12:24:54.844Z,71.27
2022-11-23T12:25:55.805Z,70.64
2022-11-23T12:26:54.814Z,69.24
2022-11-23T12:27:54.814Z,69.29
2022-11-23T12:28:54.813Z,66.12
2022-11-23T12:29:54.791Z,67.18
2022-11-23T12:30:54.799Z,64.80
2022-11-23T12:31:54.784Z,61.70
2022-11-23T12:32:55.440Z,67.85
2022-11-23T12:33:55.255Z,69.38
2022-11-23T12:34:54.778Z,62.59
2022-11-23T12:35:54.759Z,61.28
2022-11-23T12:36:54.811Z,61.45
2022-11-23T12:37:54.729Z,69.41
2022-11-23T12:38:54.741Z,62.90
2022-11-23T12:39:54.714Z,61.69
2022-11-23T12:40:55.258Z,62.28
2022-11-23T12:41:54.715Z,66.56
2022-11-23T12:42:54.702Z,71.37
2022-11-23T12:43:54.706Z,70.25
2022-11-23T12:44:54.702Z,67.51
2022-11-23T12:45:54.675Z,62.73
2022-11-23T12:46:54.688Z,57.76
2022-11-23T12:47:55.532Z,53.98
2022-11-23T12:48:54.663Z,64.79
2022-11-23T12:49:54.658Z,73.25
2022-11-23T12:50:54.651Z,70.18
2022-11-23T12:51:54.642Z,56.83
2022-11-23T12:52:54.942Z,54.15
2022-11-23T12:53:54.662Z,53.62